Time;durP1;ratioP1;P1;durP2;ratioP2;P2;SDS_P1;SDS_P2;PMS_P1;PMS_P2;Temp;Humidity;BMP_temperature;BMP_pressure;BME280_temperature;BME280_humidity;BME280_pressure;Samples;Min_cycle;Max_cycle;Signal;HPM_P1;HPM_P2
2023/07/27 00:01:25;;;;;;;776.22;496.70;;;;;;;;;;5091282;28;20429;-62
2023/07/27 00:03:53;;;;;;;751.53;428.43;;;;;;;;;;5091147;28;20531;-62
2023/07/27 00:06:20;;;;;;;745.72;478.70;;;;;;;;;;5091461;28;20416;-62
2023/07/27 00:08:50;;;;;;;748.28;482.75;;;;;;;;;;5077787;28;20514;-62
2023/07/27 00:11:17;;;;;;;771.40;533.92;;;;;;;;;;5088176;28;20457;-62
2023/07/27 00:13:44;;;;;;;803.15;478.98;;;;;;;;;;5082812;28;20426;-62
2023/07/27 00:16:11;;;;;;;773.70;443.77;;;;;;;;;;5090613;28;20903;-62
2023/07/27 00:18:38;;;;;;;711.90;564.42;;;;;;;;;;5089960;28;20429;-62
2023/07/27 00:21:05;;;;;;;660.15;590.50;;;;;;;;;;5089162;28;20461;-62
2023/07/27 00:23:33;;;;;;;804.08;558.75;;;;;;;;;;5091037;28;20535;-62
2023/07/27 00:26:00;;;;;;;727.22;571.70;;;;;;;;;;5088349;28;20461;-62
2023/07/27 00:28:27;;;;;;;801.08;478.77;;;;;;;;;;5090595;28;20479;-62
2023/07/27 00:30:57;;;;;;;828.78;496.73;;;;;;;;;;5081133;28;21214;-62
2023/07/27 00:33:27;;;;;;;772.50;491.15;;;;;;;;;;5072602;28;20551;-63
2023/07/27 00:35:55;;;;;;;734.10;511.73;;;;;;;;;;5081404;28;20427;-62
2023/07/27 00:38:22;;;;;;;843.58;469.83;;;;;;;;;;5072361;28;20885;-62
2023/07/27 00:40:52;;;;;;;813.78;500.98;;;;;;;;;;5088851;28;20425;-62
2023/07/27 00:43:19;;;;;;;821.20;495.15;;;;;;;;;;5078310;28;20437;-62
2023/07/27 00:45:47;;;;;;;783.63;501.17;;;;;;;;;;5071354;28;20433;-62
2023/07/27 00:48:17;;;;;;;823.03;484.03;;;;;;;;;;5064698;28;20512;-62
2023/07/27 00:50:44;;;;;;;833.47;512.25;;;;;;;;;;5078264;28;20558;-62
2023/07/27 00:53:12;;;;;;;836.78;475.38;;;;;;;;;;5089007;28;20834;-62
2023/07/27 00:55:39;;;;;;;848.10;431.83;;;;;;;;;;5089881;28;20422;-62
2023/07/27 00:58:10;;;;;;;819.53;494.20;;;;;;;;;;5090349;28;20434;-62
2023/07/27 01:00:38;;;;;;;809.75;511.42;;;;;;;;;;5090217;28;20438;-62
2023/07/27 01:03:05;;;;;;;817.00;505.42;;;;;;;;;;5090045;28;20441;-62
2023/07/27 01:05:36;;;;;;;802.70;481.27;;;;;;;;;;5089842;28;20750;-62
2023/07/27 01:08:09;;;;;;;764.67;492.08;;;;;;;;;;5078073;28;20430;-62
2023/07/27 01:10:46;;;;;;;767.57;496.80;;;;;;;;;;5062250;28;20853;-62
2023/07/27 01:13:40;;;;;;;766.92;489.70;;;;;;;;;;5072120;28;20431;-62
2023/07/27 01:16:12;;;;;;;769.45;494.00;;;;;;;;;;5046279;28;20512;-62
2023/07/27 01:18:50;;;;;;;770.83;502.98;;;;;;;;;;5069885;28;20423;-62
2023/07/27 01:21:20;;;;;;;787.38;528.53;;;;;;;;;;5069401;28;20939;-62
2023/07/27 01:24:14;;;;;;;784.88;478.17;;;;;;;;;;5076084;28;20525;-62
2023/07/27 01:26:56;;;;;;;798.83;507.40;;;;;;;;;;5058950;28;20432;-62
2023/07/27 01:29:42;;;;;;;774.70;506.67;;;;;;;;;;5089911;28;20437;-62
2023/07/27 01:32:10;;;;;;;775.08;490.92;;;;;;;;;;5087621;28;20453;-62
2023/07/27 01:34:39;;;;;;;782.63;474.95;;;;;;;;;;5089360;28;20558;-62
2023/07/27 01:37:08;;;;;;;789.95;519.40;;;;;;;;;;5090028;28;20465;-62
2023/07/27 01:39:41;;;;;;;880.23;584.67;;;;;;;;;;5081796;28;20484;-62
2023/07/27 01:42:11;;;;;;;799.53;573.25;;;;;;;;;;5079111;28;20508;-62
2023/07/27 01:44:38;;;;;;;803.65;522.80;;;;;;;;;;5070411;28;20422;-62
2023/07/27 01:47:09;;;;;;;824.38;471.00;;;;;;;;;;5068809;28;20423;-62
2023/07/27 01:49:40;;;;;;;773.10;517.60;;;;;;;;;;5069686;28;20428;-62
2023/07/27 01:52:12;;;;;;;821.03;463.42;;;;;;;;;;5060668;28;20425;-62
2023/07/27 01:54:40;;;;;;;790.38;478.60;;;;;;;;;;5087269;28;20460;-62
2023/07/27 01:57:10;;;;;;;761.92;498.55;;;;;;;;;;5089356;28;20425;-62
2023/07/27 01:59:38;;;;;;;757.50;483.42;;;;;;;;;;5087925;28;20429;-62
2023/07/27 02:02:06;;;;;;;758.58;486.77;;;;;;;;;;5084922;28;20434;-62
2023/07/27 02:04:37;;;;;;;802.20;466.05;;;;;;;;;;5068806;28;21141;-62
2023/07/27 02:07:07;;;;;;;826.30;445.00;;;;;;;;;;5069191;28;20961;-62
2023/07/27 02:09:34;;;;;;;802.33;460.10;;;;;;;;;;5069310;28;20423;-62
2023/07/27 02:12:06;;;;;;;794.53;468.80;;;;;;;;;;5058996;28;20442;-62
2023/07/27 02:14:52;;;;;;;789.27;485.30;;;;;;;;;;5081717;28;20533;-62
2023/07/27 02:17:39;;;;;;;755.95;498.60;;;;;;;;;;5069090;28;21086;-62
2023/07/27 02:20:12;;;;;;;800.38;477.25;;;;;;;;;;5051086;28;20430;-62
2023/07/27 02:22:40;;;;;;;781.42;498.35;;;;;;;;;;5070906;28;20427;-62
2023/07/27 02:25:08;;;;;;;777.25;523.80;;;;;;;;;;5067973;28;20471;-62
2023/07/27 02:27:35;;;;;;;768.88;505.55;;;;;;;;;;5051274;28;20489;-62
2023/07/27 02:30:06;;;;;;;845.60;413.42;;;;;;;;;;5069085;28;20439;-62
2023/07/27 02:32:33;;;;;;;815.03;448.27;;;;;;;;;;5084068;28;20480;-62
2023/07/27 02:35:00;;;;;;;785.17;494.88;;;;;;;;;;5087983;28;21029;-62
2023/07/27 02:37:27;;;;;;;817.67;484.33;;;;;;;;;;5089135;28;20919;-62
2023/07/27 02:39:54;;;;;;;811.72;505.70;;;;;;;;;;5089237;28;20430;-62
2023/07/27 02:42:25;;;;;;;856.97;428.40;;;;;;;;;;5077498;28;20529;-62
2023/07/27 02:44:52;;;;;;;790.90;526.10;;;;;;;;;;5084960;28;20434;-62
2023/07/27 02:47:19;;;;;;;760.58;474.60;;;;;;;;;;5086440;28;20425;-62
2023/07/27 02:49:46;;;;;;;816.92;487.83;;;;;;;;;;5088139;28;20420;-62
2023/07/27 02:52:13;;;;;;;785.78;484.88;;;;;;;;;;5089184;28;20449;-62
2023/07/27 02:54:43;;;;;;;783.30;468.65;;;;;;;;;;5086567;28;20513;-62
2023/07/27 02:57:10;;;;;;;806.25;501.67;;;;;;;;;;5091945;28;20453;-62
2023/07/27 02:59:37;;;;;;;834.45;459.13;;;;;;;;;;5089657;28;20966;-62
2023/07/27 03:02:05;;;;;;;800.50;526.67;;;;;;;;;;5092698;28;20422;-62
2023/07/27 03:04:35;;;;;;;838.03;478.85;;;;;;;;;;5089959;28;20422;-62
2023/07/27 03:07:04;;;;;;;819.83;489.00;;;;;;;;;;5092093;28;20847;-61
2023/07/27 03:09:33;;;;;;;821.28;458.35;;;;;;;;;;5092507;28;20425;-62
2023/07/27 03:12:03;;;;;;;790.75;470.90;;;;;;;;;;5091874;28;20426;-62
2023/07/27 03:14:33;;;;;;;776.88;484.73;;;;;;;;;;5089726;28;20432;-62
2023/07/27 03:17:00;;;;;;;801.58;492.63;;;;;;;;;;5086901;28;21046;-62
2023/07/27 03:19:27;;;;;;;787.90;481.77;;;;;;;;;;5092120;28;20450;-62
2023/07/27 03:21:54;;;;;;;814.63;498.60;;;;;;;;;;5090021;28;20431;-62
2023/07/27 03:24:22;;;;;;;806.17;449.93;;;;;;;;;;5088815;28;20819;-62
2023/07/27 03:26:49;;;;;;;810.88;484.80;;;;;;;;;;5091589;28;20453;-62
2023/07/27 03:29:16;;;;;;;769.05;468.20;;;;;;;;;;5065859;28;20433;-62
2023/07/27 03:31:43;;;;;;;775.88;497.10;;;;;;;;;;5092041;28;20426;-62
2023/07/27 03:34:10;;;;;;;777.27;494.43;;;;;;;;;;5087433;28;20487;-62
2023/07/27 03:36:41;;;;;;;772.63;495.23;;;;;;;;;;5088896;28;20504;-62
2023/07/27 03:39:09;;;;;;;781.65;502.52;;;;;;;;;;5091735;28;20459;-62
2023/07/27 03:41:41;;;;;;;763.33;455.05;;;;;;;;;;5091898;28;20962;-62
2023/07/27 03:44:11;;;;;;;766.08;469.00;;;;;;;;;;5091198;28;20425;-62
2023/07/27 03:46:41;;;;;;;767.67;483.35;;;;;;;;;;5089312;28;20799;-62
2023/07/27 03:49:09;;;;;;;768.13;480.42;;;;;;;;;;5090338;28;20430;-62
2023/07/27 03:51:38;;;;;;;767.45;479.58;;;;;;;;;;5091589;28;20421;-62
2023/07/27 03:54:06;;;;;;;768.78;486.67;;;;;;;;;;5091037;28;20430;-62
2023/07/27 03:56:33;;;;;;;773.45;496.73;;;;;;;;;;5079696;28;20927;-61
2023/07/27 03:59:01;;;;;;;771.53;494.45;;;;;;;;;;5071827;28;20423;-62
2023/07/27 04:01:28;;;;;;;791.33;483.58;;;;;;;;;;5071323;28;20940;-62
2023/07/27 04:03:55;;;;;;;781.17;515.40;;;;;;;;;;5070000;28;20434;-62
2023/07/27 04:06:22;;;;;;;792.05;533.92;;;;;;;;;;5071774;28;20958;-62
2023/07/27 04:08:49;;;;;;;764.75;477.10;;;;;;;;;;5071114;28;20423;-62
2023/07/27 04:11:17;;;;;;;768.97;499.77;;;;;;;;;;5088396;28;20455;-62
2023/07/27 04:13:44;;;;;;;779.28;514.80;;;;;;;;;;5089885;28;20425;-62
2023/07/27 04:16:11;;;;;;;802.05;471.77;;;;;;;;;;5090859;28;20433;-62
2023/07/27 04:18:38;;;;;;;794.17;467.73;;;;;;;;;;5073066;28;20484;-62
2023/07/27 04:21:08;;;;;;;783.75;470.58;;;;;;;;;;5079142;28;20513;-62
2023/07/27 04:23:36;;;;;;;767.80;499.40;;;;;;;;;;5070726;28;20806;-62
2023/07/27 04:26:03;;;;;;;776.67;517.05;;;;;;;;;;5069840;28;20431;-62
2023/07/27 04:28:30;;;;;;;782.15;498.30;;;;;;;;;;5089601;28;20422;-62
2023/07/27 04:30:57;;;;;;;800.17;538.90;;;;;;;;;;5083933;28;20427;-63
2023/07/27 04:33:25;;;;;;;761.50;478.37;;;;;;;;;;5092990;28;20769;-62
2023/07/27 04:35:56;;;;;;;767.13;483.95;;;;;;;;;;5086360;28;20429;-62
2023/07/27 04:38:24;;;;;;;768.63;484.13;;;;;;;;;;5078765;28;20415;-63
2023/07/27 04:40:51;;;;;;;769.97;494.65;;;;;;;;;;5089073;28;20753;-63
2023/07/27 04:43:18;;;;;;;772.28;493.83;;;;;;;;;;5103305;28;20426;-63
2023/07/27 04:45:46;;;;;;;773.83;493.08;;;;;;;;;;5097245;28;20433;-63
2023/07/27 04:48:13;;;;;;;771.47;485.02;;;;;;;;;;5080228;28;20534;-63
2023/07/27 04:50:40;;;;;;;773.70;487.73;;;;;;;;;;5071478;28;20501;-62
2023/07/27 04:53:07;;;;;;;773.53;487.60;;;;;;;;;;5072609;28;20427;-63
2023/07/27 04:55:34;;;;;;;767.97;476.35;;;;;;;;;;5083016;28;20941;-63
2023/07/27 04:58:03;;;;;;;773.40;505.80;;;;;;;;;;5088223;28;20455;-63
2023/07/27 05:00:30;;;;;;;771.28;502.75;;;;;;;;;;5072171;28;20450;-63
2023/07/27 05:02:57;;;;;;;773.42;506.17;;;;;;;;;;5089725;28;20426;-62
2023/07/27 05:05:25;;;;;;;768.50;485.52;;;;;;;;;;5089330;28;20434;-62
2023/07/27 05:07:52;;;;;;;782.25;499.27;;;;;;;;;;5070080;28;20447;-62
2023/07/27 05:10:19;;;;;;;780.37;483.50;;;;;;;;;;5087478;28;20429;-62
2023/07/27 05:12:46;;;;;;;778.83;495.17;;;;;;;;;;5079343;28;20510;-63
2023/07/27 05:15:15;;;;;;;775.25;504.10;;;;;;;;;;5085508;28;20491;-62
2023/07/27 05:17:42;;;;;;;774.38;490.73;;;;;;;;;;5074197;28;20431;-62
2023/07/27 05:20:10;;;;;;;780.25;499.35;;;;;;;;;;5077905;28;20426;-63
2023/07/27 05:22:37;;;;;;;777.43;471.83;;;;;;;;;;5087000;28;20433;-63
2023/07/27 05:25:04;;;;;;;783.13;483.85;;;;;;;;;;5066078;28;20442;-63
2023/07/27 05:27:32;;;;;;;774.35;487.35;;;;;;;;;;5077838;28;20521;-63
2023/07/27 05:29:59;;;;;;;775.53;496.80;;;;;;;;;;5075362;28;20423;-63
2023/07/27 05:32:26;;;;;;;776.00;505.10;;;;;;;;;;5079799;28;20487;-63
2023/07/27 05:34:54;;;;;;;770.88;494.33;;;;;;;;;;5083726;28;20505;-63
2023/07/27 05:37:24;;;;;;;757.35;483.15;;;;;;;;;;5081662;28;20433;-63
2023/07/27 05:39:52;;;;;;;774.78;513.53;;;;;;;;;;5077277;28;20430;-63
2023/07/27 05:42:19;;;;;;;776.03;517.08;;;;;;;;;;5079696;28;20791;-63
2023/07/27 05:44:47;;;;;;;786.80;501.83;;;;;;;;;;5076557;28;20434;-63
2023/07/27 05:47:14;;;;;;;782.67;533.15;;;;;;;;;;5073513;28;20425;-63
2023/07/27 05:49:41;;;;;;;748.38;490.58;;;;;;;;;;5065002;28;20422;-63
2023/07/27 05:52:12;;;;;;;786.13;463.97;;;;;;;;;;5080387;28;20430;-63
2023/07/27 05:54:39;;;;;;;782.33;497.13;;;;;;;;;;5085401;28;20501;-63
2023/07/27 05:57:08;;;;;;;812.35;463.58;;;;;;;;;;5082538;28;20429;-64
2023/07/27 05:59:35;;;;;;;763.30;501.80;;;;;;;;;;5068617;28;20428;-64
2023/07/27 06:02:03;;;;;;;788.40;478.75;;;;;;;;;;5078160;28;20426;-64
2023/07/27 06:04:30;;;;;;;777.58;518.75;;;;;;;;;;5083775;28;20836;-63
2023/07/27 06:06:58;;;;;;;765.17;495.45;;;;;;;;;;5081316;28;20439;-63
2023/07/27 06:09:25;;;;;;;782.38;520.92;;;;;;;;;;5081491;28;20429;-63
2023/07/27 06:11:53;;;;;;;794.67;524.17;;;;;;;;;;5080765;28;20445;-63
2023/07/27 06:14:24;;;;;;;842.22;465.67;;;;;;;;;;5077217;28;20482;-63
2023/07/27 06:16:51;;;;;;;830.65;486.42;;;;;;;;;;5075928;28;20436;-63
2023/07/27 06:19:18;;;;;;;811.15;483.95;;;;;;;;;;5085443;28;20495;-64
2023/07/27 06:21:45;;;;;;;837.00;440.70;;;;;;;;;;5080570;28;20514;-62
2023/07/27 06:24:13;;;;;;;787.30;453.27;;;;;;;;;;5082774;28;20429;-63
2023/07/27 06:26:47;;;;;;;824.78;433.23;;;;;;;;;;5085206;28;20969;-64
2023/07/27 06:29:15;;;;;;;835.00;427.27;;;;;;;;;;5085480;28;20430;-64
2023/07/27 06:31:45;;;;;;;845.78;425.90;;;;;;;;;;5088366;28;20422;-65
2023/07/27 06:34:17;;;;;;;792.22;495.52;;;;;;;;;;5069233;28;20880;-65
2023/07/27 06:36:44;;;;;;;774.93;482.07;;;;;;;;;;5088474;28;20530;-65
2023/07/27 06:39:12;;;;;;;782.67;444.45;;;;;;;;;;5078245;28;20440;-65
2023/07/27 06:41:39;;;;;;;754.92;504.98;;;;;;;;;;5084489;28;20429;-64
2023/07/27 06:44:08;;;;;;;798.65;466.08;;;;;;;;;;5064664;28;20487;-65
2023/07/27 06:46:36;;;;;;;764.60;475.73;;;;;;;;;;5082581;28;20989;-65
2023/07/27 06:49:06;;;;;;;764.83;465.23;;;;;;;;;;5088192;28;20418;-65
2023/07/27 06:51:36;;;;;;;780.28;431.60;;;;;;;;;;5078145;28;21023;-65
2023/07/27 06:54:03;;;;;;;765.58;460.23;;;;;;;;;;5087019;28;20453;-64
2023/07/27 06:56:32;;;;;;;741.80;500.63;;;;;;;;;;5071935;28;20475;-65
2023/07/27 06:59:00;;;;;;;786.60;390.60;;;;;;;;;;5087145;28;20429;-64
2023/07/27 07:01:27;;;;;;;757.25;473.60;;;;;;;;;;5081141;28;20481;-65
2023/07/27 07:03:58;;;;;;;754.97;424.48;;;;;;;;;;5069716;28;20462;-64
2023/07/27 07:06:25;;;;;;;735.47;391.58;;;;;;;;;;5088562;28;20421;-65
2023/07/27 07:08:57;;;;;;;669.55;430.13;;;;;;;;;;5066523;28;20417;-65
2023/07/27 07:11:29;;;;;;;690.17;410.77;;;;;;;;;;5082709;28;20557;-65
2023/07/27 07:13:56;;;;;;;709.58;462.05;;;;;;;;;;5083356;28;20479;-65
2023/07/27 07:16:24;;;;;;;687.55;401.75;;;;;;;;;;5086550;28;20967;-65
2023/07/27 07:18:51;;;;;;;676.90;429.80;;;;;;;;;;5091742;28;20430;-65
2023/07/27 07:21:18;;;;;;;640.07;361.50;;;;;;;;;;5089802;28;20516;-66
2023/07/27 07:23:45;;;;;;;687.53;339.30;;;;;;;;;;5083435;28;21150;-66
2023/07/27 07:26:14;;;;;;;723.53;311.80;;;;;;;;;;5088620;28;20437;-66
2023/07/27 07:28:41;;;;;;;713.83;312.70;;;;;;;;;;5072351;28;20421;-67
2023/07/27 07:31:08;;;;;;;687.60;323.02;;;;;;;;;;5089707;28;20430;-67
2023/07/27 07:33:35;;;;;;;649.97;326.02;;;;;;;;;;5088382;28;20477;-68
2023/07/27 07:36:03;;;;;;;651.88;299.48;;;;;;;;;;5089800;28;20502;-68
2023/07/27 07:38:30;;;;;;;654.20;295.88;;;;;;;;;;5089008;28;20993;-69
2023/07/27 07:40:57;;;;;;;594.28;300.90;;;;;;;;;;5086983;28;20432;-69
2023/07/27 07:43:24;;;;;;;623.42;291.45;;;;;;;;;;5086660;28;20429;-71
2023/07/27 07:45:51;;;;;;;593.95;263.73;;;;;;;;;;5084425;28;20906;-71
2023/07/27 07:48:18;;;;;;;631.72;266.90;;;;;;;;;;5087715;28;20425;-72
2023/07/27 07:50:45;;;;;;;574.38;320.85;;;;;;;;;;5086945;28;20485;-72
2023/07/27 07:53:13;;;;;;;671.92;232.25;;;;;;;;;;5083921;28;20433;-69
2023/07/27 07:55:56;;;;;;;666.00;226.48;;;;;;;;;;5083495;28;20819;-72
2023/07/27 07:58:23;;;;;;;639.70;243.25;;;;;;;;;;5077366;28;20425;-74
2023/07/27 08:00:51;;;;;;;646.40;276.15;;;;;;;;;;5079505;28;20514;-74
2023/07/27 08:03:21;;;;;;;670.95;245.90;;;;;;;;;;5076622;28;20526;-74
2023/07/27 08:05:48;;;;;;;655.60;235.90;;;;;;;;;;5076199;28;20427;-73
2023/07/27 08:08:18;;;;;;;670.40;224.70;;;;;;;;;;5087881;28;20517;-75
2023/07/27 08:10:46;;;;;;;642.78;232.55;;;;;;;;;;5090700;28;20429;-76
2023/07/27 08:13:13;;;;;;;601.08;255.05;;;;;;;;;;5079434;28;20509;-73
2023/07/27 08:15:56;;;;;;;609.53;268.88;;;;;;;;;;5090544;28;20508;-76
2023/07/27 08:18:23;;;;;;;619.97;241.53;;;;;;;;;;5084136;28;20549;-78
2023/07/27 08:20:57;;;;;;;577.45;291.80;;;;;;;;;;5089636;28;20468;-77
2023/07/27 08:23:25;;;;;;;606.58;220.52;;;;;;;;;;5083146;28;20768;-76
2023/07/27 08:25:54;;;;;;;597.75;227.52;;;;;;;;;;5078119;28;20429;-76
2023/07/27 08:28:22;;;;;;;583.20;272.20;;;;;;;;;;5088220;28;20461;-76
2023/07/27 08:30:49;;;;;;;586.33;213.63;;;;;;;;;;5081109;28;20418;-78
2023/07/27 08:33:17;;;;;;;575.42;350.90;;;;;;;;;;5080748;28;20427;-76
2023/07/27 08:35:44;;;;;;;587.20;354.75;;;;;;;;;;5080119;28;20424;-76
2023/07/27 08:38:12;;;;;;;638.78;216.13;;;;;;;;;;5087177;28;20433;-76
2023/07/27 08:40:39;;;;;;;573.65;287.45;;;;;;;;;;5086484;28;21134;-72
2023/07/27 08:43:08;;;;;;;617.47;221.70;;;;;;;;;;5090252;28;20441;-78
2023/07/27 08:45:36;;;;;;;605.38;195.35;;;;;;;;;;5087317;28;20432;-81
2023/07/27 08:48:05;;;;;;;569.30;207.40;;;;;;;;;;5090584;28;20523;-76
2023/07/27 08:50:32;;;;;;;590.28;234.50;;;;;;;;;;5083258;28;20432;-73
2023/07/27 08:53:02;;;;;;;439.45;182.93;;;;;;;;;;5085375;28;20433;-76
2023/07/27 08:55:29;;;;;;;541.90;207.25;;;;;;;;;;5086112;28;20435;-78
2023/07/27 08:57:56;;;;;;;619.45;186.85;;;;;;;;;;5085361;28;21069;-78
2023/07/27 09:00:23;;;;;;;590.40;206.10;;;;;;;;;;5084440;28;20425;-78
2023/07/27 09:02:51;;;;;;;602.63;199.10;;;;;;;;;;5088619;28;20440;-76
2023/07/27 09:05:19;;;;;;;596.13;190.95;;;;;;;;;;5082979;28;20429;-77
2023/07/27 09:07:49;;;;;;;557.65;210.88;;;;;;;;;;5088152;28;20437;-78
2023/07/27 09:10:17;;;;;;;517.05;210.57;;;;;;;;;;5087224;28;20422;-82
2023/07/27 09:12:44;;;;;;;498.05;225.50;;;;;;;;;;5084724;28;20448;-80
2023/07/27 09:15:15;;;;;;;530.53;228.23;;;;;;;;;;5081404;28;20565;-81
2023/07/27 09:17:58;;;;;;;556.05;226.57;;;;;;;;;;5069373;28;20434;-79
2023/07/27 09:20:29;;;;;;;561.75;249.18;;;;;;;;;;5088797;28;20431;-81
2023/07/27 09:22:57;;;;;;;591.57;308.87;;;;;;;;;;5073205;28;20475;-83
2023/07/27 09:25:26;;;;;;;583.83;319.47;;;;;;;;;;5087310;28;20464;-77
2023/07/27 09:27:59;;;;;;;639.30;357.15;;;;;;;;;;5086639;28;20830;-83
2023/07/27 09:30:26;;;;;;;634.28;391.90;;;;;;;;;;5089431;28;20424;-83
2023/07/27 09:32:54;;;;;;;667.75;395.58;;;;;;;;;;5091886;28;20427;-81
2023/07/27 09:35:24;;;;;;;664.78;432.05;;;;;;;;;;5087493;28;20427;-81
2023/07/27 09:37:52;;;;;;;651.90;386.02;;;;;;;;;;5078596;28;20433;-81
2023/07/27 09:40:23;;;;;;;674.92;395.05;;;;;;;;;;5088904;28;20443;-77
2023/07/27 09:42:50;;;;;;;695.13;375.85;;;;;;;;;;5091038;28;20479;-77
2023/07/27 09:45:17;;;;;;;688.00;405.08;;;;;;;;;;5083394;28;21057;-80
2023/07/27 09:47:45;;;;;;;700.30;425.83;;;;;;;;;;5074472;28;20775;-85
2023/07/27 09:50:12;;;;;;;745.28;379.55;;;;;;;;;;5089570;28;20451;-80
2023/07/27 09:52:39;;;;;;;712.55;452.02;;;;;;;;;;5090939;28;20888;-81
2023/07/27 09:55:07;;;;;;;708.42;440.60;;;;;;;;;;5069680;28;20495;-80
2023/07/27 09:57:38;;;;;;;702.75;433.33;;;;;;;;;;5080701;28;20504;-79
2023/07/27 10:00:06;;;;;;;702.65;425.33;;;;;;;;;;5091163;28;20425;-85
2023/07/27 10:02:34;;;;;;;742.65;425.67;;;;;;;;;;5076635;28;20530;-78
2023/07/27 10:05:03;;;;;;;711.67;447.40;;;;;;;;;;5082513;28;20925;-77
2023/07/27 10:07:30;;;;;;;718.67;467.88;;;;;;;;;;5090449;28;20482;-79
2023/07/27 10:10:27;;;;;;;710.65;449.27;;;;;;;;;;5087910;28;20925;-80
2023/07/27 10:13:19;;;;;;;714.33;415.27;;;;;;;;;;5088571;28;20433;-78
2023/07/27 10:15:49;;;;;;;699.17;415.48;;;;;;;;;;5082805;28;20427;-77
2023/07/27 10:18:26;;;;;;;702.83;416.90;;;;;;;;;;5084731;28;20435;-76
2023/07/27 10:20:57;;;;;;;699.92;396.05;;;;;;;;;;5082785;28;20425;-82
2023/07/27 10:23:28;;;;;;;718.72;462.77;;;;;;;;;;5093947;28;20746;-80
2023/07/27 10:25:55;;;;;;;722.90;440.77;;;;;;;;;;5078449;28;20814;-76
2023/07/27 10:28:29;;;;;;;702.58;417.80;;;;;;;;;;5080871;28;20437;-76
2023/07/27 10:31:15;;;;;;;725.53;432.25;;;;;;;;;;5092047;28;20421;-78
2023/07/27 10:33:52;;;;;;;697.53;444.63;;;;;;;;;;5081598;28;20425;-78
2023/07/27 10:36:20;;;;;;;687.50;438.83;;;;;;;;;;5092248;28;21049;-77
2023/07/27 10:38:52;;;;;;;681.50;424.48;;;;;;;;;;5094631;28;20437;-75
2023/07/27 10:41:20;;;;;;;658.25;402.23;;;;;;;;;;5085022;28;20430;-75
2023/07/27 10:44:23;;;;;;;648.15;392.95;;;;;;;;;;5089545;28;20999;-79
2023/07/27 10:46:54;;;;;;;642.63;378.17;;;;;;;;;;4991923;28;20852;-75
2023/07/27 10:49:22;;;;;;;621.90;350.85;;;;;;;;;;4993743;28;20484;-73
2023/07/27 10:51:55;;;;;;;610.90;335.35;;;;;;;;;;4989921;28;20438;-75
2023/07/27 10:54:25;;;;;;;605.00;325.85;;;;;;;;;;4997879;28;20463;-76
2023/07/27 10:56:53;;;;;;;595.35;322.63;;;;;;;;;;4985512;28;20462;-75
2023/07/27 10:59:22;;;;;;;584.40;308.10;;;;;;;;;;4990149;28;20450;-75
2023/07/27 11:02:10;;;;;;;581.78;314.63;;;;;;;;;;5003107;28;20446;-73
2023/07/27 11:04:40;;;;;;;582.72;318.30;;;;;;;;;;4983041;28;20430;-73
2023/07/27 11:07:09;;;;;;;590.85;319.23;;;;;;;;;;4993711;28;20477;-74
2023/07/27 11:09:37;;;;;;;593.28;328.08;;;;;;;;;;4995278;28;20488;-75
2023/07/27 11:12:04;;;;;;;596.83;331.75;;;;;;;;;;4993208;28;20466;-74
2023/07/27 11:14:32;;;;;;;604.35;323.15;;;;;;;;;;4982190;28;20521;-70
2023/07/27 11:16:59;;;;;;;596.17;311.08;;;;;;;;;;4984241;28;20435;-70
2023/07/27 11:19:26;;;;;;;606.70;336.05;;;;;;;;;;4995091;28;20627;-72
2023/07/27 11:21:54;;;;;;;592.88;312.83;;;;;;;;;;5065292;28;20994;-72
2023/07/27 11:24:22;;;;;;;584.20;297.23;;;;;;;;;;5081636;28;20545;-71
2023/07/27 11:26:49;;;;;;;592.28;341.23;;;;;;;;;;5082340;28;20450;-71
2023/07/27 11:29:17;;;;;;;602.25;366.23;;;;;;;;;;5095846;28;20557;-71
2023/07/27 11:31:54;;;;;;;602.00;329.33;;;;;;;;;;5083580;28;20453;-73
2023/07/27 11:34:22;;;;;;;563.67;284.92;;;;;;;;;;5094062;28;20525;-73
2023/07/27 11:36:57;;;;;;;584.13;318.95;;;;;;;;;;5084439;28;20939;-74
2023/07/27 11:39:25;;;;;;;639.30;333.00;;;;;;;;;;5080393;28;25118;-72
2023/07/27 11:41:53;;;;;;;604.88;371.60;;;;;;;;;;5087523;28;20446;-70
2023/07/27 11:44:21;;;;;;;654.67;388.83;;;;;;;;;;5088061;28;20929;-72
2023/07/27 11:46:52;;;;;;;637.70;417.20;;;;;;;;;;5090447;28;20430;-73
2023/07/27 11:49:21;;;;;;;622.63;393.75;;;;;;;;;;5081222;28;20479;-75
2023/07/27 11:51:50;;;;;;;607.58;361.80;;;;;;;;;;5072740;28;20433;-77
2023/07/27 11:54:21;;;;;;;586.55;334.38;;;;;;;;;;5068646;28;21031;-73
2023/07/27 11:56:52;;;;;;;571.78;314.88;;;;;;;;;;5082153;28;20546;-71
2023/07/27 11:59:22;;;;;;;573.20;321.80;;;;;;;;;;5080109;28;20441;-72
2023/07/27 12:01:50;;;;;;;581.47;341.27;;;;;;;;;;5073321;28;20492;-73
2023/07/27 12:04:18;;;;;;;576.90;336.70;;;;;;;;;;5072688;28;20459;-73
2023/07/27 12:06:46;;;;;;;579.13;338.95;;;;;;;;;;5091378;28;20775;-73
2023/07/27 12:09:13;;;;;;;603.25;389.67;;;;;;;;;;5072331;28;20517;-71
2023/07/27 12:11:41;;;;;;;585.70;344.40;;;;;;;;;;5091030;28;20965;-74
2023/07/27 12:14:09;;;;;;;610.30;379.48;;;;;;;;;;5063901;28;20429;-75
2023/07/27 12:16:37;;;;;;;603.70;372.70;;;;;;;;;;5087448;28;20819;-77
2023/07/27 12:19:08;;;;;;;583.93;318.23;;;;;;;;;;5091682;28;20500;-72
2023/07/27 12:21:36;;;;;;;599.97;338.13;;;;;;;;;;5086512;28;20530;-71
2023/07/27 12:24:10;;;;;;;627.85;391.58;;;;;;;;;;5080989;28;20521;-71
2023/07/27 12:26:44;;;;;;;614.28;360.13;;;;;;;;;;5090422;28;21869;-72
2023/07/27 12:29:14;;;;;;;619.53;362.30;;;;;;;;;;5066739;28;25114;-70
2023/07/27 12:31:45;;;;;;;629.08;382.30;;;;;;;;;;5086911;28;20418;-70
2023/07/27 12:34:15;;;;;;;636.28;397.77;;;;;;;;;;5087039;28;20427;-71
2023/07/27 12:36:49;;;;;;;623.45;367.85;;;;;;;;;;5086149;28;20424;-70
2023/07/27 12:39:19;;;;;;;627.13;335.33;;;;;;;;;;5087903;28;20506;-69
2023/07/27 12:41:46;;;;;;;614.60;370.88;;;;;;;;;;5082819;28;20435;-70
2023/07/27 12:44:19;;;;;;;612.90;361.00;;;;;;;;;;5089216;28;20483;-70
2023/07/27 12:46:46;;;;;;;612.05;365.27;;;;;;;;;;5085181;28;20475;-70
2023/07/27 12:49:13;;;;;;;613.85;360.00;;;;;;;;;;5065484;28;20440;-71
2023/07/27 12:51:40;;;;;;;604.10;343.93;;;;;;;;;;5074567;28;20502;-69
2023/07/27 12:54:08;;;;;;;606.78;349.08;;;;;;;;;;5066209;28;20447;-70
2023/07/27 12:56:35;;;;;;;598.97;330.90;;;;;;;;;;5083739;28;20451;-70
2023/07/27 12:59:02;;;;;;;619.38;356.50;;;;;;;;;;5084516;28;20486;-70
2023/07/27 13:01:33;;;;;;;592.72;353.00;;;;;;;;;;5084955;28;20444;-71
2023/07/27 13:04:03;;;;;;;600.60;349.40;;;;;;;;;;5085815;28;20768;-69
2023/07/27 13:06:30;;;;;;;610.92;330.88;;;;;;;;;;5083382;28;20572;-69
2023/07/27 13:09:00;;;;;;;611.38;351.90;;;;;;;;;;5082442;28;20494;-69
2023/07/27 13:11:28;;;;;;;632.80;366.52;;;;;;;;;;5061161;28;20425;-70
2023/07/27 13:13:55;;;;;;;594.65;349.17;;;;;;;;;;5085932;28;20426;-70
2023/07/27 13:16:22;;;;;;;588.72;322.83;;;;;;;;;;5084981;28;20522;-68
2023/07/27 13:18:58;;;;;;;602.88;334.90;;;;;;;;;;5069740;28;20432;-69
2023/07/27 13:21:26;;;;;;;605.75;394.48;;;;;;;;;;5087582;28;20433;-70
2023/07/27 13:23:53;;;;;;;628.93;243.73;;;;;;;;;;5074651;28;20422;-69
2023/07/27 13:26:20;;;;;;;674.33;228.50;;;;;;;;;;5080825;28;20436;-70
2023/07/27 13:28:47;;;;;;;666.53;210.73;;;;;;;;;;5072332;28;20431;-69
2023/07/27 13:31:18;;;;;;;560.10;257.90;;;;;;;;;;5082466;28;20477;-70
2023/07/27 13:33:46;;;;;;;651.90;232.98;;;;;;;;;;5073939;28;20413;-69
2023/07/27 13:36:13;;;;;;;636.90;369.40;;;;;;;;;;5058713;28;20428;-71
2023/07/27 13:38:40;;;;;;;694.58;265.00;;;;;;;;;;5069998;28;20442;-69
2023/07/27 13:41:08;;;;;;;625.45;405.58;;;;;;;;;;5069259;28;20474;-69
2023/07/27 13:43:35;;;;;;;642.72;439.15;;;;;;;;;;5089926;28;20494;-69
2023/07/27 13:46:02;;;;;;;623.75;389.45;;;;;;;;;;5084581;28;20420;-70
2023/07/27 13:48:36;;;;;;;618.00;361.97;;;;;;;;;;5069383;28;21102;-71
2023/07/27 13:51:03;;;;;;;621.92;371.85;;;;;;;;;;5081710;28;20449;-70
2023/07/27 13:53:31;;;;;;;620.53;360.00;;;;;;;;;;5070869;28;20418;-70
2023/07/27 13:56:01;;;;;;;625.58;363.27;;;;;;;;;;5084324;28;20773;-70
2023/07/27 13:58:28;;;;;;;618.38;361.35;;;;;;;;;;5088244;28;20842;-70
2023/07/27 14:00:58;;;;;;;617.57;379.33;;;;;;;;;;5078683;28;20464;-70
2023/07/27 14:03:26;;;;;;;616.22;373.58;;;;;;;;;;5084681;28;20520;-70